Time;durP1;ratioP1;P1;durP2;ratioP2;P2;SDS_P1;SDS_P2;PMS_P1;PMS_P2;Temp;Humidity;BMP_temperature;BMP_pressure;BME280_temperature;BME280_humidity;BME280_pressure;Samples;Min_cycle;Max_cycle;Signal;HPM_P1;HPM_P2
2022/12/02 00:00:56;;;;;;;2.80;2.00;;;7.70;90.60;;;;;;5035620;28;20037;-66
2022/12/02 00:03:24;;;;;;;2.37;2.07;;;7.60;90.60;;;;;;5035638;28;20030;-66
2022/12/02 00:05:54;;;;;;;3.73;2.50;;;7.60;90.60;;;;;;5035301;28;20026;-67
2022/12/02 00:08:28;;;;;;;3.10;2.17;;;7.60;90.50;;;;;;5035597;28;20345;-65
2022/12/02 00:10:56;;;;;;;2.93;2.40;;;7.60;90.60;;;;;;5035550;28;20025;-67
2022/12/02 00:13:39;;;;;;;2.63;2.20;;;7.50;91.50;;;;;;5035473;28;20025;-66
2022/12/02 00:16:05;;;;;;;3.60;2.38;;;7.50;91.90;;;;;;5035246;28;20387;-64
2022/12/02 00:18:31;;;;;;;4.90;2.90;;;7.50;92.10;;;;;;5035131;28;20036;-65
2022/12/02 00:20:57;;;;;;;4.30;2.73;;;7.50;92.10;;;;;;5035372;28;20383;-66
2022/12/02 00:23:23;;;;;;;3.77;2.77;;;7.40;92.40;;;;;;5035029;28;20022;-67
2022/12/02 00:25:52;;;;;;;4.83;3.00;;;7.40;92.40;;;;;;5035362;28;20024;-66
2022/12/02 00:28:17;;;;;;;4.70;3.03;;;7.40;92.70;;;;;;5035308;28;20018;-66
2022/12/02 00:30:43;;;;;;;4.00;3.17;;;7.50;93.00;;;;;;5035177;28;20038;-65
2022/12/02 00:33:09;;;;;;;4.17;2.83;;;7.40;93.10;;;;;;5034824;28;20032;-67
2022/12/02 00:35:35;;;;;;;6.20;3.10;;;7.40;92.90;;;;;;5034856;28;20387;-66
2022/12/02 00:38:01;;;;;;;3.97;3.17;;;7.40;93.10;;;;;;5034987;28;20087;-66
2022/12/02 00:40:27;;;;;;;4.33;3.10;;;7.40;93.60;;;;;;5035089;28;20034;-66
2022/12/02 00:42:53;;;;;;;4.27;2.70;;;7.40;93.50;;;;;;5035041;28;20072;-67
2022/12/02 00:48:03;;;;;;;3.43;2.03;;;7.40;91.90;;;;;;5034844;28;20048;-66
2022/12/02 00:50:28;;;;;;;3.47;2.50;;;7.50;92.00;;;;;;5034954;28;20025;-67
2022/12/02 00:52:54;;;;;;;3.10;2.37;;;7.40;91.80;;;;;;5034829;28;20430;-66
2022/12/02 00:55:20;;;;;;;2.70;2.10;;;7.40;92.40;;;;;;5034683;28;20049;-66
2022/12/02 00:57:46;;;;;;;3.77;2.60;;;7.40;92.80;;;;;;5034669;28;20092;-66
2022/12/02 01:00:12;;;;;;;3.30;2.47;;;7.40;93.00;;;;;;5034513;28;20049;-66
2022/12/02 01:02:38;;;;;;;3.80;2.33;;;7.40;93.60;;;;;;5034036;28;20061;-67
2022/12/02 01:05:05;;;;;;;4.20;2.53;;;7.40;93.40;;;;;;5034521;28;20064;-66
2022/12/02 01:07:31;;;;;;;3.47;2.73;;;7.40;93.40;;;;;;5034557;28;20017;-66
2022/12/02 01:09:56;;;;;;;3.50;3.00;;;7.40;93.20;;;;;;5034495;28;20017;-66
2022/12/02 01:12:22;;;;;;;3.67;2.30;;;7.40;93.70;;;;;;5034429;28;20024;-65
2022/12/02 01:14:48;;;;;;;3.57;2.50;;;7.40;93.80;;;;;;5034166;28;20021;-66
2022/12/02 01:17:14;;;;;;;3.47;2.50;;;7.30;94.00;;;;;;5034350;28;20041;-65
2022/12/02 01:19:39;;;;;;;2.67;2.10;;;7.40;94.00;;;;;;5034278;28;20018;-68
2022/12/02 01:22:05;;;;;;;2.37;1.70;;;7.40;93.60;;;;;;5034109;28;20034;-66
2022/12/02 01:24:31;;;;;;;2.60;1.50;;;7.40;93.20;;;;;;5034145;28;20029;-66
2022/12/02 01:26:56;;;;;;;3.33;1.73;;;7.40;93.00;;;;;;5034134;28;20029;-66
2022/12/02 01:29:22;;;;;;;2.07;1.10;;;7.40;93.10;;;;;;5033763;28;20014;-65
2022/12/02 01:31:47;;;;;;;2.60;1.60;;;7.40;93.50;;;;;;5033684;28;20083;-65
2022/12/02 01:34:13;;;;;;;2.30;1.70;;;7.40;93.90;;;;;;5033812;28;20066;-66
2022/12/02 01:36:39;;;;;;;2.30;1.77;;;7.30;93.80;;;;;;5033791;28;20053;-67
2022/12/02 01:39:04;;;;;;;2.70;1.97;;;7.30;94.00;;;;;;5033891;28;20040;-65
2022/12/02 01:41:30;;;;;;;2.73;2.00;;;7.30;94.10;;;;;;5033796;28;20033;-65
2022/12/02 01:43:56;;;;;;;4.17;2.30;;;7.30;94.40;;;;;;5033568;28;20051;-65
2022/12/02 01:46:22;;;;;;;2.70;1.87;;;7.30;94.30;;;;;;5033503;28;20028;-65
2022/12/02 01:48:48;;;;;;;1.87;1.50;;;7.30;94.40;;;;;;5033720;28;20055;-65
2022/12/02 01:51:14;;;;;;;2.93;2.00;;;7.30;94.50;;;;;;5033781;28;20030;-65
2022/12/02 01:53:40;;;;;;;2.30;1.80;;;7.30;94.60;;;;;;5033711;28;20041;-65
2022/12/02 01:56:09;;;;;;;2.57;1.90;;;7.30;94.70;;;;;;5033404;28;20032;-65
2022/12/02 01:58:35;;;;;;;1.97;1.60;;;7.30;94.30;;;;;;5031664;28;20044;-65
2022/12/02 02:01:01;;;;;;;2.30;1.80;;;7.30;94.30;;;;;;5030808;28;20021;-65
2022/12/02 02:03:27;;;;;;;2.40;1.90;;;7.30;94.20;;;;;;5030723;28;20553;-66
2022/12/02 02:05:53;;;;;;;1.93;1.70;;;7.30;94.70;;;;;;5032948;28;20026;-65
2022/12/02 02:08:19;;;;;;;2.50;1.90;;;7.20;94.60;;;;;;5032786;28;20101;-66
2022/12/02 02:10:46;;;;;;;2.97;2.13;;;7.20;95.20;;;;;;5033273;28;20033;-66
2022/12/02 02:13:14;;;;;;;2.93;2.00;;;7.20;95.00;;;;;;5032129;28;20045;-67
2022/12/02 02:15:42;;;;;;;2.50;1.97;;;7.20;95.10;;;;;;5033072;28;20121;-66
2022/12/02 02:18:09;;;;;;;2.30;1.73;;;7.30;95.10;;;;;;5032798;28;20120;-65
2022/12/02 02:20:39;;;;;;;5.70;2.03;;;7.20;95.10;;;;;;5032908;28;20037;-65
2022/12/02 02:23:04;;;;;;;2.30;1.60;;;7.20;95.40;;;;;;5033014;28;20017;-65
2022/12/02 02:25:42;;;;;;;2.60;1.80;;;7.20;95.90;;;;;;5033155;28;20041;-65
2022/12/02 02:28:08;;;;;;;2.77;2.03;;;7.20;95.90;;;;;;5033016;28;20040;-65
2022/12/02 02:30:35;;;;;;;2.73;1.80;;;7.20;95.80;;;;;;5033101;28;20080;-66
2022/12/02 02:33:04;;;;;;;2.50;1.83;;;7.20;95.90;;;;;;5032844;28;20033;-65
2022/12/02 02:35:33;;;;;;;2.93;2.10;;;7.20;96.00;;;;;;5032206;28;20022;-65
2022/12/02 02:37:59;;;;;;;2.70;1.90;;;7.20;96.00;;;;;;5032579;28;20530;-67
2022/12/02 02:40:27;;;;;;;2.37;1.97;;;7.20;96.20;;;;;;5032804;28;20065;-65
2022/12/02 02:42:56;;;;;;;2.50;1.90;;;7.30;96.00;;;;;;5032962;28;20039;-66
2022/12/02 02:45:26;;;;;;;2.73;2.00;;;7.20;95.90;;;;;;5032708;28;20026;-65
2022/12/02 02:47:53;;;;;;;2.93;2.20;;;7.20;95.60;;;;;;5032897;28;20419;-65
2022/12/02 02:50:20;;;;;;;3.00;2.40;;;7.20;95.70;;;;;;5033108;28;20443;-66
2022/12/02 02:52:46;;;;;;;2.63;1.97;;;7.20;95.70;;;;;;5032770;28;20557;-64
2022/12/02 02:55:18;;;;;;;3.23;2.50;;;7.20;95.80;;;;;;5032954;28;20022;-65
2022/12/02 02:57:44;;;;;;;4.13;2.80;;;7.20;96.10;;;;;;5032905;28;20137;-66
2022/12/02 03:00:10;;;;;;;2.87;2.37;;;7.20;96.20;;;;;;5032919;28;20097;-67
2022/12/02 03:02:36;;;;;;;4.07;2.63;;;7.30;96.20;;;;;;5032770;28;20030;-65
2022/12/02 03:05:03;;;;;;;3.90;2.80;;;7.20;96.20;;;;;;5032798;28;20065;-64
2022/12/02 03:07:28;;;;;;;3.60;2.90;;;7.20;96.40;;;;;;5032788;28;20361;-65
2022/12/02 03:09:54;;;;;;;4.43;3.10;;;7.20;96.40;;;;;;5032641;28;20083;-65
2022/12/02 03:12:20;;;;;;;3.73;3.07;;;7.20;96.50;;;;;;5032934;28;20393;-65
2022/12/02 03:14:46;;;;;;;3.87;3.20;;;7.30;96.60;;;;;;5032525;28;20522;-67
2022/12/02 03:17:13;;;;;;;3.77;2.77;;;7.30;96.60;;;;;;5032905;28;20037;-67
2022/12/02 03:19:39;;;;;;;2.83;2.47;;;7.30;96.50;;;;;;5032513;28;20029;-64
2022/12/02 03:22:06;;;;;;;3.40;2.60;;;7.30;96.50;;;;;;5032456;28;20088;-65
2022/12/02 03:24:32;;;;;;;4.10;2.40;;;7.20;96.40;;;;;;5031122;28;20426;-67
2022/12/02 03:26:59;;;;;;;3.20;2.50;;;7.20;96.60;;;;;;5036446;28;20365;-65
2022/12/02 03:29:27;;;;;;;3.30;2.37;;;7.20;96.60;;;;;;5036462;28;20029;-65
2022/12/02 03:31:53;;;;;;;3.23;2.40;;;7.20;96.70;;;;;;5036368;28;20025;-65
2022/12/02 03:34:19;;;;;;;3.07;2.37;;;7.20;96.80;;;;;;5036262;28;20156;-65
2022/12/02 03:36:45;;;;;;;4.07;2.10;;;7.20;96.90;;;;;;5036118;28;20049;-65
2022/12/02 03:39:10;;;;;;;2.80;2.20;;;7.20;96.90;;;;;;5036106;28;20025;-67
2022/12/02 03:41:37;;;;;;;2.77;2.10;;;7.20;96.60;;;;;;5036122;28;20075;-65
2022/12/02 03:44:03;;;;;;;3.40;2.10;;;7.30;96.70;;;;;;5036001;28;20524;-65
2022/12/02 03:46:29;;;;;;;2.20;1.70;;;7.30;97.00;;;;;;5036055;28;20046;-67
2022/12/02 03:48:56;;;;;;;3.03;2.37;;;7.20;96.60;;;;;;5035972;28;20364;-65
2022/12/02 03:51:21;;;;;;;3.13;2.43;;;7.20;96.90;;;;;;5036064;28;20028;-66
2022/12/02 03:53:47;;;;;;;5.63;2.70;;;7.20;96.90;;;;;;5035961;28;20029;-65
2022/12/02 03:56:13;;;;;;;4.47;2.30;;;7.20;97.00;;;;;;5035613;28;20028;-65
2022/12/02 03:58:46;;;;;;;3.10;2.27;;;7.30;97.10;;;;;;5035803;28;20021;-65
2022/12/02 04:01:12;;;;;;;2.85;2.33;;;7.20;97.10;;;;;;5035784;28;20356;-65
2022/12/02 04:03:38;;;;;;;3.10;2.50;;;7.20;96.90;;;;;;5035561;28;20025;-66
2022/12/02 04:06:04;;;;;;;2.23;2.03;;;7.20;96.90;;;;;;5035798;28;20083;-65
2022/12/02 04:08:29;;;;;;;2.87;2.00;;;7.30;96.90;;;;;;5035625;28;20032;-65
2022/12/02 04:10:55;;;;;;;5.10;2.43;;;7.30;97.20;;;;;;5035651;28;20530;-65
2022/12/02 04:13:20;;;;;;;3.50;2.13;;;7.30;96.70;;;;;;5035559;28;20100;-65
2022/12/02 04:15:46;;;;;;;2.90;2.13;;;7.20;96.90;;;;;;5035659;28;20468;-67
2022/12/02 04:18:12;;;;;;;3.43;2.33;;;7.20;97.20;;;;;;5035331;28;20503;-67
2022/12/02 04:20:38;;;;;;;3.53;2.20;;;7.20;97.30;;;;;;5035438;28;20109;-66
2022/12/02 04:23:03;;;;;;;2.90;2.03;;;7.20;97.20;;;;;;5035428;28;20052;-66
2022/12/02 04:25:29;;;;;;;2.70;2.33;;;7.20;97.20;;;;;;5034979;28;20026;-66
2022/12/02 04:27:54;;;;;;;2.87;2.33;;;7.20;97.30;;;;;;5034994;28;20037;-65
2022/12/02 04:30:20;;;;;;;3.63;2.63;;;7.20;97.40;;;;;;5035059;28;20021;-65
2022/12/02 04:32:46;;;;;;;3.40;2.57;;;7.20;97.50;;;;;;5035268;28;20092;-67
2022/12/02 04:35:11;;;;;;;3.50;2.57;;;7.20;97.50;;;;;;5035193;28;20092;-67
2022/12/02 04:37:37;;;;;;;3.00;2.23;;;7.20;97.50;;;;;;5034483;28;20406;-65
2022/12/02 04:40:04;;;;;;;3.37;2.10;;;7.20;97.40;;;;;;5035096;28;20499;-65
2022/12/02 04:42:29;;;;;;;4.13;2.00;;;7.30;97.40;;;;;;5034787;28;20040;-66
2022/12/02 04:44:55;;;;;;;3.00;2.40;;;7.30;97.40;;;;;;5034937;28;20384;-65
2022/12/02 04:47:21;;;;;;;2.87;2.53;;;7.30;97.40;;;;;;5034899;28;20473;-65
2022/12/02 04:49:46;;;;;;;4.23;3.40;;;7.20;97.50;;;;;;5034515;28;20498;-65
2022/12/02 04:52:12;;;;;;;4.40;3.07;;;7.20;97.40;;;;;;5034572;28;20101;-67
2022/12/02 04:54:37;;;;;;;3.17;2.73;;;7.20;97.40;;;;;;5034762;28;20060;-65
2022/12/02 04:57:03;;;;;;;3.30;2.27;;;7.20;97.60;;;;;;5034783;28;20041;-65
2022/12/02 04:59:29;;;;;;;3.30;2.67;;;7.20;97.60;;;;;;5034871;28;20379;-65
2022/12/02 05:01:54;;;;;;;3.00;2.60;;;7.30;97.60;;;;;;5034618;28;20080;-65
2022/12/02 05:04:20;;;;;;;3.47;2.70;;;7.30;97.50;;;;;;5034480;28;20034;-65
2022/12/02 05:06:45;;;;;;;4.40;2.80;;;7.20;97.40;;;;;;5034450;28;20053;-68
2022/12/02 05:09:11;;;;;;;3.70;2.67;;;7.20;97.40;;;;;;5034459;28;20021;-67
2022/12/02 05:11:37;;;;;;;3.57;2.90;;;7.20;97.60;;;;;;5034476;28;20026;-66
2022/12/02 05:14:02;;;;;;;3.13;2.60;;;7.20;97.70;;;;;;5034392;28;20048;-65
2022/12/02 05:16:28;;;;;;;3.00;2.50;;;7.20;97.60;;;;;;5034120;28;20384;-65
2022/12/02 05:18:54;;;;;;;3.17;2.53;;;7.20;97.60;;;;;;5034333;28;20061;-65
2022/12/02 05:21:19;;;;;;;2.93;2.33;;;7.20;97.70;;;;;;5034285;28;20120;-64
2022/12/02 05:23:45;;;;;;;3.30;2.73;;;7.20;97.60;;;;;;5033963;28;20033;-65
2022/12/02 05:26:11;;;;;;;4.10;2.80;;;7.20;97.60;;;;;;5034076;28;20021;-66
2022/12/02 05:28:36;;;;;;;3.43;2.53;;;7.20;97.70;;;;;;5034293;28;20029;-65
2022/12/02 05:31:02;;;;;;;3.27;2.23;;;7.20;97.80;;;;;;5034293;28;20376;-66
2022/12/02 05:33:28;;;;;;;3.00;2.53;;;7.20;97.30;;;;;;5033982;28;20030;-64
2022/12/02 05:35:54;;;;;;;2.80;2.30;;;7.20;97.30;;;;;;5033409;28;20046;-65
2022/12/02 05:38:20;;;;;;;2.63;2.20;;;7.20;97.10;;;;;;5033932;28;20033;-67
2022/12/02 05:40:46;;;;;;;2.93;2.13;;;7.20;97.00;;;;;;5034127;28;20101;-66
2022/12/02 05:43:22;;;;;;;3.20;2.40;;;7.20;96.70;;;;;;5033949;28;20100;-67
2022/12/02 05:45:49;;;;;;;2.63;2.00;;;7.20;95.90;;;;;;5033809;28;20101;-65
2022/12/02 05:48:17;;;;;;;2.57;2.03;;;7.20;96.10;;;;;;5033108;28;20083;-66
2022/12/02 05:50:44;;;;;;;3.10;2.47;;;7.20;96.10;;;;;;5033637;28;20030;-66
2022/12/02 05:53:20;;;;;;;2.63;1.80;;;7.20;96.10;;;;;;5033618;28;20026;-65
2022/12/02 05:55:47;;;;;;;3.33;1.67;;;7.20;96.00;;;;;;5033606;28;20076;-65
2022/12/02 05:58:13;;;;;;;2.73;1.60;;;7.20;95.60;;;;;;5033397;28;20084;-66
2022/12/02 06:00:39;;;;;;;3.17;1.70;;;7.20;95.50;;;;;;5033678;28;20044;-66
2022/12/02 06:03:13;;;;;;;2.23;1.60;;;7.20;95.30;;;;;;5033565;28;20026;-66
2022/12/02 06:05:42;;;;;;;1.87;1.37;;;7.10;95.40;;;;;;5033510;28;20075;-65
2022/12/02 06:08:22;;;;;;;2.50;1.90;;;7.10;95.70;;;;;;5033295;28;20065;-65
2022/12/02 06:10:50;;;;;;;2.30;1.37;;;7.10;95.80;;;;;;5033289;28;20029;-65
2022/12/02 06:13:22;;;;;;;2.30;1.80;;;7.10;95.30;;;;;;5033182;28;20104;-66
2022/12/02 06:15:49;;;;;;;2.67;2.30;;;7.20;95.20;;;;;;5033021;28;20052;-65
2022/12/02 06:18:18;;;;;;;2.80;1.80;;;7.10;95.20;;;;;;5033187;28;20030;-65
2022/12/02 06:20:45;;;;;;;2.57;2.00;;;7.20;95.40;;;;;;5033221;28;20029;-65
2022/12/02 06:23:14;;;;;;;3.93;2.37;;;7.10;95.80;;;;;;5033176;28;20059;-66
2022/12/02 06:25:41;;;;;;;3.30;2.60;;;7.10;95.50;;;;;;5033033;28;20388;-65
2022/12/02 06:28:30;;;;;;;3.93;2.80;;;7.10;95.50;;;;;;5032971;28;20040;-65
2022/12/02 06:31:08;;;;;;;1.97;1.40;;;7.20;95.70;;;;;;5033150;28;20025;-65
2022/12/02 06:33:36;;;;;;;1.90;1.40;;;7.20;95.30;;;;;;5033179;28;20484;-65
2022/12/02 06:36:08;;;;;;;1.83;1.30;;;7.20;94.50;;;;;;5032931;28;20625;-65
2022/12/02 06:38:42;;;;;;;4.53;2.43;;;7.20;94.40;;;;;;5032890;28;20045;-66
2022/12/02 06:41:36;;;;;;;12.67;8.43;;;7.10;94.30;;;;;;5048199;28;20030;-67
2022/12/02 06:46:58;;;;;;;1.87;1.30;;;7.10;93.80;;;;;;5033501;28;20090;-66
2022/12/02 06:49:32;;;;;;;3.63;1.50;;;7.10;93.50;;;;;;5031394;28;20389;-67
2022/12/02 06:52:05;;;;;;;1.80;1.50;;;7.10;93.80;;;;;;5032446;28;20055;-67
2022/12/02 06:54:31;;;;;;;3.00;1.83;;;7.10;93.80;;;;;;5032560;28;20375;-68
2022/12/02 06:56:59;;;;;;;3.03;1.90;;;7.10;93.40;;;;;;5032396;28;20041;-66
2022/12/02 06:59:26;;;;;;;3.27;1.00;;;7.10;93.20;;;;;;5033644;28;20515;-67
2022/12/02 07:01:58;;;;;;;1.20;0.90;;;7.10;92.40;;;;;;5036465;28;20391;-67
2022/12/02 07:04:48;;;;;;;1.80;1.00;;;7.20;91.50;;;;;;5036778;28;20388;-68
2022/12/02 07:07:31;;;;;;;1.60;0.93;;;7.10;91.20;;;;;;5036447;28;20670;-67
2022/12/02 07:10:28;;;;;;;1.50;1.10;;;7.10;91.60;;;;;;5036048;28;20395;-69
2022/12/02 07:12:57;;;;;;;1.33;1.03;;;7.10;91.60;;;;;;5034525;28;20033;-66
2022/12/02 07:15:28;;;;;;;1.80;1.00;;;7.20;91.30;;;;;;5036203;28;20025;-67
2022/12/02 07:18:09;;;;;;;1.43;1.00;;;7.10;90.70;;;;;;5036087;28;20044;-65
2022/12/02 07:20:38;;;;;;;2.47;2.07;;;7.10;91.00;;;;;;5035991;28;20026;-66
2022/12/02 07:23:15;;;;;;;5.23;3.93;;;7.10;91.60;;;;;;5036044;28;20179;-69
2022/12/02 07:25:48;;;;;;;3.83;2.40;;;7.10;91.90;;;;;;5036290;28;20026;-67
2022/12/02 07:28:33;;;;;;;2.88;2.15;;;7.10;92.20;;;;;;5034392;28;20037;-68
2022/12/02 07:31:19;;;;;;;2.30;2.00;;;7.10;92.50;;;;;;5035588;28;20025;-69
2022/12/02 07:33:45;;;;;;;3.43;2.70;;;7.10;92.80;;;;;;5035371;28;20080;-69
2022/12/02 07:36:11;;;;;;;3.40;2.50;;;7.10;93.20;;;;;;5034731;28;20099;-66
2022/12/02 07:38:37;;;;;;;3.20;2.23;;;7.10;93.70;;;;;;5035139;28;20546;-67
2022/12/02 07:41:04;;;;;;;4.23;2.87;;;7.10;93.90;;;;;;5035795;28;20053;-69
2022/12/02 07:43:30;;;;;;;2.83;2.37;;;7.10;94.30;;;;;;5035662;28;20029;-69
2022/12/02 07:45:55;;;;;;;4.07;2.73;;;7.10;93.70;;;;;;5035113;28;20049;-69
2022/12/02 07:48:21;;;;;;;3.83;2.70;;;7.10;94.00;;;;;;5035430;28;20060;-67
2022/12/02 07:50:47;;;;;;;3.97;3.23;;;7.10;93.90;;;;;;5035014;28;20017;-66
2022/12/02 07:53:12;;;;;;;5.67;4.10;;;7.10;94.00;;;;;;5035253;28;20479;-69
2022/12/02 07:55:38;;;;;;;5.70;4.37;;;7.10;94.10;;;;;;5035262;28;20040;-71
2022/12/02 07:58:04;;;;;;;4.50;3.47;;;7.20;94.30;;;;;;5033543;28;20483;-70
2022/12/02 08:00:30;;;;;;;4.83;3.20;;;7.20;94.70;;;;;;5035250;28;20488;-65
2022/12/02 08:02:56;;;;;;;3.50;2.20;;;7.20;94.60;;;;;;5034972;28;20026;-65
2022/12/02 08:05:22;;;;;;;2.30;1.60;;;7.20;94.60;;;;;;5033487;28;20105;-69
2022/12/02 08:07:48;;;;;;;2.40;1.13;;;7.30;94.20;;;;;;5034720;28;20041;-70
2022/12/02 08:10:15;;;;;;;3.50;1.30;;;7.30;92.80;;;;;;5034966;28;20025;-70
2022/12/02 08:12:41;;;;;;;2.40;1.50;;;7.30;92.80;;;;;;5034852;28;20086;-69
2022/12/02 08:15:08;;;;;;;1.80;1.20;;;7.30;92.90;;;;;;5035251;28;20080;-68
2022/12/02 08:17:34;;;;;;;1.50;0.97;;;7.30;92.80;;;;;;5035072;28;20041;-64
2022/12/02 08:19:59;;;;;;;1.43;1.10;;;7.30;92.20;;;;;;5034780;28;20030;-65
2022/12/02 08:22:25;;;;;;;1.40;1.03;;;7.30;91.60;;;;;;5033957;28;20475;-66
2022/12/02 08:24:51;;;;;;;1.70;1.20;;;7.40;91.30;;;;;;5034594;28;20067;-66
2022/12/02 08:27:17;;;;;;;1.80;1.47;;;7.30;91.80;;;;;;5034752;28;20022;-66
2022/12/02 08:29:42;;;;;;;1.57;1.10;;;7.40;92.30;;;;;;5034933;28;20029;-66
2022/12/02 08:32:08;;;;;;;2.97;1.50;;;7.40;91.80;;;;;;5034897;28;20489;-66
2022/12/02 08:34:34;;;;;;;1.80;1.30;;;7.40;91.40;;;;;;5034815;28;20030;-66
2022/12/02 08:37:00;;;;;;;2.07;1.20;;;7.40;91.50;;;;;;5034527;28;20054;-66
2022/12/02 08:39:25;;;;;;;2.67;1.00;;;7.40;91.20;;;;;;5034578;28;20018;-65
2022/12/02 08:41:51;;;;;;;1.30;1.10;;;7.50;91.00;;;;;;5034231;28;20076;-66
2022/12/02 08:44:17;;;;;;;1.97;1.13;;;7.50;90.50;;;;;;5034485;28;20018;-66
2022/12/02 08:46:43;;;;;;;1.93;1.20;;;7.50;90.40;;;;;;5034529;28;20075;-67
2022/12/02 08:49:08;;;;;;;1.63;1.20;;;7.50;90.50;;;;;;5033924;28;20037;-70
2022/12/02 08:51:35;;;;;;;5.07;1.60;;;7.50;90.30;;;;;;5033892;28;20022;-66
2022/12/02 08:54:01;;;;;;;1.30;1.10;;;7.60;90.20;;;;;;5034578;28;20022;-65
2022/12/02 08:56:26;;;;;;;2.20;1.40;;;7.60;89.30;;;;;;5034467;28;20056;-66
2022/12/02 08:58:52;;;;;;;1.60;1.10;;;7.60;89.10;;;;;;5034491;28;20029;-65
2022/12/02 09:01:18;;;;;;;1.83;1.43;;;7.60;89.30;;;;;;5034505;28;20353;-66
2022/12/02 09:03:43;;;;;;;1.73;1.00;;;7.70;89.30;;;;;;5033736;28;20095;-65
2022/12/02 09:06:09;;;;;;;1.37;1.00;;;7.70;89.90;;;;;;5034082;28;20029;-66
2022/12/02 09:08:35;;;;;;;1.83;1.20;;;7.70;90.10;;;;;;5033624;28;20040;-66
2022/12/02 09:11:00;;;;;;;2.17;1.30;;;7.70;90.00;;;;;;5032283;28;20087;-69
2022/12/02 09:13:26;;;;;;;2.20;1.60;;;7.70;90.10;;;;;;5030901;28;20420;-69
2022/12/02 09:15:52;;;;;;;2.60;1.57;;;7.70;90.50;;;;;;5032757;28;20029;-65
2022/12/02 09:18:17;;;;;;;4.07;2.17;;;7.70;90.30;;;;;;5032609;28;20033;-70
2022/12/02 09:20:43;;;;;;;2.17;1.13;;;7.80;89.70;;;;;;5033195;28;20201;-70
2022/12/02 09:23:09;;;;;;;2.07;1.40;;;7.80;89.30;;;;;;5033006;28;20033;-67
2022/12/02 09:25:34;;;;;;;2.50;1.77;;;7.90;88.90;;;;;;5033087;28;20048;-66
2022/12/02 09:28:00;;;;;;;2.73;1.40;;;7.90;88.50;;;;;;5033045;28;20034;-70
2022/12/02 09:30:26;;;;;;;1.67;1.23;;;7.90;88.40;;;;;;5032670;28;20100;-65
2022/12/02 09:32:51;;;;;;;3.70;1.40;;;7.90;87.70;;;;;;5032393;28;20037;-65
2022/12/02 09:35:17;;;;;;;2.20;1.33;;;8.00;88.00;;;;;;5032553;28;20493;-66
2022/12/02 09:37:43;;;;;;;2.80;1.40;;;8.00;88.10;;;;;;5032605;28;20415;-68
2022/12/02 09:40:09;;;;;;;2.17;1.53;;;8.00;88.00;;;;;;5032891;28;20028;-67
2022/12/02 09:42:35;;;;;;;2.20;1.33;;;8.00;87.80;;;;;;5033040;28;20051;-67
2022/12/02 09:45:01;;;;;;;1.83;1.30;;;8.00;87.30;;;;;;5033251;28;20018;-66
2022/12/02 09:47:28;;;;;;;20.33;13.60;;;8.00;87.00;;;;;;5032902;28;20033;-67
2022/12/02 09:49:55;;;;;;;13.90;10.90;;;8.00;87.50;;;;;;5032581;28;20416;-66
2022/12/02 09:52:24;;;;;;;4.73;3.60;;;8.10;87.60;;;;;;5032641;28;20068;-66
2022/12/02 09:54:55;;;;;;;2.30;2.00;;;8.10;87.80;;;;;;5032300;28;20035;-67
2022/12/02 09:57:28;;;;;;;2.60;2.20;;;8.10;87.70;;;;;;5032718;28;20356;-66
2022/12/02 09:59:55;;;;;;;2.57;1.57;;;8.10;88.90;;;;;;5033141;28;20030;-68
2022/12/02 10:02:38;;;;;;;7.67;1.77;;;8.10;88.90;;;;;;5033195;28;20104;-66
2022/12/02 10:05:13;;;;;;;2.22;1.63;;;8.20;89.20;;;;;;5032098;28;20484;-66
2022/12/02 10:07:39;;;;;;;3.07;1.80;;;8.20;89.00;;;;;;5033085;28;20022;-68
2022/12/02 10:10:05;;;;;;;2.43;1.43;;;8.20;88.50;;;;;;5031850;28;20021;-66
2022/12/02 10:12:31;;;;;;;4.90;1.80;;;8.20;88.50;;;;;;5033140;28;20021;-70
2022/12/02 10:14:58;;;;;;;2.90;1.50;;;8.20;89.10;;;;;;5033376;28;20035;-66
2022/12/02 10:17:23;;;;;;;2.37;1.57;;;8.30;88.70;;;;;;5031857;28;20029;-70
2022/12/02 10:19:50;;;;;;;3.03;1.63;;;8.30;88.30;;;;;;5047946;28;20379;-66
2022/12/02 10:22:19;;;;;;;5.07;1.50;;;8.30;88.20;;;;;;5032705;28;20100;-66
2022/12/02 10:24:45;;;;;;;2.87;1.20;;;8.30;87.80;;;;;;5032475;28;20049;-67
2022/12/02 10:27:23;;;;;;;2.07;1.17;;;8.30;87.50;;;;;;5032746;28;20079;-67
2022/12/02 10:29:49;;;;;;;2.70;1.50;;;8.40;87.40;;;;;;5032702;28;20026;-66
2022/12/02 10:32:22;;;;;;;3.30;1.57;;;8.40;87.00;;;;;;5032572;28;20025;-66
2022/12/02 10:35:05;;;;;;;1.80;1.35;;;8.40;87.10;;;;;;5032070;28;20021;-66
2022/12/02 10:37:31;;;;;;;;;;;8.40;87.50;;;;;;5032697;28;20483;-66
2022/12/02 10:40:14;;;;;;;2.30;1.40;;;8.40;87.30;;;;;;5032457;28;19944;-67
2022/12/02 10:42:41;;;;;;;2.03;1.30;;;8.40;87.30;;;;;;5032722;28;20049;-66
2022/12/02 10:45:18;;;;;;;2.00;1.37;;;8.40;87.60;;;;;;5032877;28;20506;-67
2022/12/02 10:47:45;;;;;;;2.03;1.47;;;8.40;87.60;;;;;;5032596;28;20052;-66
2022/12/02 10:50:20;;;;;;;1.90;1.60;;;8.50;87.70;;;;;;5032822;28;20476;-66
2022/12/02 10:52:52;;;;;;;4.97;1.70;;;8.50;88.50;;;;;;5033049;28;20022;-67
2022/12/02 10:55:19;;;;;;;5.10;1.55;;;8.50;87.80;;;;;;5032807;28;20049;-66
2022/12/02 10:57:46;;;;;;;4.17;1.40;;;8.50;87.30;;;;;;5032760;28;20040;-66
2022/12/02 11:00:16;;;;;;;2.63;0.90;;;8.50;86.70;;;;;;5032695;28;20029;-66
2022/12/02 11:02:45;;;;;;;3.90;1.60;;;8.50;85.70;;;;;;5032634;28;20068;-65
2022/12/02 11:05:18;;;;;;;2.10;1.20;;;8.60;85.50;;;;;;5032219;28;20018;-66
2022/12/02 11:07:51;;;;;;;3.43;1.37;;;8.60;85.60;;;;;;5032276;28;20026;-66
2022/12/02 11:10:22;;;;;;;2.30;1.38;;;8.60;85.60;;;;;;5032566;28;20087;-66
2022/12/02 11:12:47;;;;;;;3.93;1.70;;;8.70;85.70;;;;;;5032194;28;20039;-66
2022/12/02 11:15:35;;;;;;;2.30;1.50;;;8.70;86.30;;;;;;5032442;28;20033;-66
2022/12/02 11:18:01;;;;;;;1.80;1.20;;;8.70;86.10;;;;;;5032317;28;20112;-66
2022/12/02 11:20:40;;;;;;;1.77;1.10;;;8.70;85.50;;;;;;5032509;28;20022;-66
2022/12/02 11:23:15;;;;;;;3.97;1.20;;;8.70;84.80;;;;;;5032384;28;20040;-66
2022/12/02 11:25:46;;;;;;;1.83;1.10;;;8.70;84.20;;;;;;5032699;28;20379;-65
2022/12/02 11:28:30;;;;;;;1.90;1.10;;;8.70;83.90;;;;;;5032384;28;20037;-66
2022/12/02 11:31:19;;;;;;;1.07;0.80;;;8.70;83.00;;;;;;5032388;28;20033;-66
2022/12/02 11:33:48;;;;;;;2.70;1.40;;;8.70;81.70;;;;;;5032534;28;20052;-69
2022/12/02 11:36:16;;;;;;;2.60;1.30;;;8.70;81.90;;;;;;5032284;28;20380;-66
2022/12/02 11:38:50;;;;;;;1.80;1.17;;;8.70;81.80;;;;;;5031658;28;20108;-66
2022/12/02 11:41:21;;;;;;;2.20;1.20;;;8.70;82.50;;;;;;5032368;28;20476;-66
2022/12/02 11:43:46;;;;;;;3.97;1.47;;;8.70;84.00;;;;;;5032093;28;20033;-66
2022/12/02 11:46:17;;;;;;;2.10;1.33;;;8.80;83.10;;;;;;5032559;28;20032;-66
2022/12/02 11:48:54;;;;;;;1.90;1.30;;;8.80;80.90;;;;;;5035613;28;20017;-66
2022/12/02 11:51:25;;;;;;;2.73;1.60;;;8.70;80.80;;;;;;5035250;28;20038;-70
2022/12/02 11:53:51;;;;;;;2.10;1.20;;;8.80;81.00;;;;;;5035432;28;20476;-66
2022/12/02 11:56:17;;;;;;;3.97;1.87;;;8.80;81.20;;;;;;5035173;28;20029;-66
2022/12/02 11:58:44;;;;;;;1.53;1.13;;;8.80;80.60;;;;;;5035165;28;20091;-66
2022/12/02 12:01:19;;;;;;;2.90;1.27;;;8.80;80.70;;;;;;5035328;28;20047;-66
2022/12/02 12:03:50;;;;;;;3.00;1.30;;;8.80;80.50;;;;;;5035307;28;20033;-66
2022/12/02 12:06:21;;;;;;;2.07;1.40;;;8.80;80.60;;;;;;5034783;28;20022;-66
2022/12/02 12:08:53;;;;;;;1.87;1.23;;;8.80;81.20;;;;;;5034777;28;20061;-66
2022/12/02 12:11:21;;;;;;;3.05;1.45;;;8.80;80.10;;;;;;5035154;28;20057;-65
2022/12/02 12:13:56;;;;;;;2.10;1.60;;;8.80;80.60;;;;;;5032902;28;20032;-65
2022/12/02 12:16:23;;;;;;;2.93;1.43;;;8.80;80.80;;;;;;5032162;28;20033;-66
2022/12/02 12:18:49;;;;;;;2.53;1.60;;;8.80;80.70;;;;;;5034141;28;20034;-65
2022/12/02 12:21:30;;;;;;;1.97;1.60;;;8.80;80.40;;;;;;5035308;28;20025;-66
2022/12/02 12:24:17;;;;;;;2.53;1.57;;;8.80;79.20;;;;;;5035226;28;20046;-66
2022/12/02 12:26:44;;;;;;;3.20;1.47;;;8.80;79.60;;;;;;5035351;28;20087;-66
2022/12/02 12:29:10;;;;;;;3.03;1.50;;;8.80;79.90;;;;;;5035085;28;20460;-66
2022/12/02 12:31:36;;;;;;;2.17;1.27;;;8.80;79.00;;;;;;5034984;28;20087;-65
2022/12/02 12:34:02;;;;;;;1.90;1.30;;;8.80;78.70;;;;;;5035159;28;20030;-66
2022/12/02 12:36:29;;;;;;;2.00;1.13;;;8.80;78.70;;;;;;5034457;28;20041;-66
2022/12/02 12:38:54;;;;;;;1.40;1.20;;;8.70;78.80;;;;;;5032439;28;20492;-66
2022/12/02 12:41:20;;;;;;;4.37;1.50;;;8.70;79.40;;;;;;5032268;28;20079;-68
2022/12/02 12:43:46;;;;;;;2.00;1.37;;;8.80;79.30;;;;;;5032223;28;20029;-65
2022/12/02 12:46:11;;;;;;;2.37;1.43;;;8.80;79.90;;;;;;5034100;28;20114;-66
2022/12/02 12:48:37;;;;;;;3.13;1.87;;;8.70;79.60;;;;;;5034131;28;20018;-66
2022/12/02 12:51:03;;;;;;;2.27;1.50;;;8.70;79.90;;;;;;5034484;28;20033;-66
2022/12/02 12:53:28;;;;;;;1.97;1.50;;;8.70;79.70;;;;;;5034572;28;20056;-66
2022/12/02 12:55:54;;;;;;;2.17;1.50;;;8.70;79.30;;;;;;5034297;28;20159;-65
2022/12/02 12:58:20;;;;;;;2.37;1.70;;;8.70;78.90;;;;;;5033905;28;20057;-69
2022/12/02 13:00:45;;;;;;;1.93;1.30;;;8.70;78.70;;;;;;5034112;28;20111;-66
2022/12/02 13:03:11;;;;;;;1.97;1.30;;;8.60;78.80;;;;;;5034150;28;20030;-69
2022/12/02 13:05:36;;;;;;;8.13;6.30;;;8.60;78.90;;;;;;5034188;28;20029;-66
2022/12/02 13:08:02;;;;;;;4.50;2.23;;;8.60;79.40;;;;;;5034025;28;20032;-66